Time;durP1;ratioP1;P1;durP2;ratioP2;P2;SDS_P1;SDS_P2;PMS_P1;PMS_P2;Temp;Humidity;BMP_temperature;BMP_pressure;BME280_temperature;BME280_humidity;BME280_pressure;Samples;Min_cycle;Max_cycle;Signal;HPM_P1;HPM_P2
2021/04/19 04:12:29;;;;;;;0.80;0.80;;;7.20;99.90;;;;;;4990290;23;20249;-81
2021/04/19 04:14:57;;;;;;;0.90;0.90;;;7.00;99.90;;;;;;4917718;29;20258;-82
2021/04/19 04:17:25;;;;;;;1.00;1.00;;;7.10;99.90;;;;;;4917757;29;20269;-79
2021/04/19 04:19:52;;;;;;;1.00;1.00;;;7.10;99.90;;;;;;4917234;29;20671;-78
2021/04/19 04:22:20;;;;;;;0.90;0.90;;;7.20;99.90;;;;;;4900589;29;20227;-79
2021/04/19 04:24:47;;;;;;;0.90;0.90;;;7.50;99.90;;;;;;4927241;23;20227;-79
2021/04/19 04:27:16;;;;;;;1.03;1.03;;;7.70;99.90;;;;;;4957552;29;20234;-81
2021/04/19 04:29:44;;;;;;;1.10;1.10;;;8.00;99.90;;;;;;4952268;29;20217;-78
2021/04/19 04:32:11;;;;;;;0.87;0.87;;;8.10;99.90;;;;;;4956216;29;20221;-78
2021/04/19 04:34:39;;;;;;;1.00;1.00;;;8.10;99.90;;;;;;4962254;29;20236;-81
2021/04/19 04:37:06;;;;;;;1.00;1.00;;;8.10;99.90;;;;;;4941465;29;20209;-82
2021/04/19 04:39:33;;;;;;;0.90;0.90;;;7.50;99.90;;;;;;4945029;29;20242;-82
2021/04/19 04:42:02;;;;;;;1.07;1.07;;;7.50;99.90;;;;;;4949821;29;20273;-81
2021/04/19 04:44:34;;;;;;;1.00;1.00;;;7.50;99.90;;;;;;4945063;29;20202;-81
2021/04/19 04:47:12;;;;;;;0.90;0.90;;;7.60;99.90;;;;;;4942471;29;20202;-81
2021/04/19 04:49:47;;;;;;;1.00;1.00;;;7.50;99.90;;;;;;4940879;29;20197;-78
2021/04/19 04:52:15;;;;;;;0.90;0.90;;;7.50;99.90;;;;;;4940082;29;20221;-80
2021/04/19 04:54:48;;;;;;;1.20;1.20;;;7.60;99.90;;;;;;4942200;29;20201;-80
2021/04/19 04:57:19;;;;;;;1.00;1.00;;;7.80;99.90;;;;;;4941347;29;20264;-80
2021/04/19 04:59:47;;;;;;;1.00;1.00;;;8.10;99.90;;;;;;4940689;29;20210;-82
2021/04/19 05:02:18;;;;;;;0.93;0.93;;;8.30;99.90;;;;;;4941034;29;20541;-79
2021/04/19 05:04:47;;;;;;;1.13;1.13;;;8.30;99.90;;;;;;4940305;29;20556;-79
2021/04/19 05:07:15;;;;;;;0.90;0.90;;;8.70;99.90;;;;;;4937480;29;20208;-79
2021/04/19 05:09:44;;;;;;;1.00;1.00;;;8.60;99.90;;;;;;4942361;29;20230;-81
2021/04/19 05:12:12;;;;;;;0.90;0.90;;;8.70;99.90;;;;;;4941207;29;20620;-81
2021/04/19 05:14:40;;;;;;;1.00;1.00;;;8.80;99.90;;;;;;4941891;29;20202;-81
2021/04/19 05:17:07;;;;;;;0.90;0.90;;;8.60;99.90;;;;;;4940620;29;20206;-81
2021/04/19 05:19:35;;;;;;;0.80;0.80;;;8.70;99.90;;;;;;4940651;29;20655;-82
2021/04/19 05:22:02;;;;;;;0.80;0.80;;;9.00;99.90;;;;;;4939970;29;20208;-80
2021/04/19 05:24:29;;;;;;;0.80;0.80;;;8.90;99.90;;;;;;4939655;29;20206;-80
2021/04/19 05:26:56;;;;;;;0.80;0.80;;;8.80;99.90;;;;;;4938912;29;20265;-79
2021/04/19 05:29:24;;;;;;;0.90;0.90;;;8.60;99.90;;;;;;4940437;29;20206;-80
2021/04/19 05:31:51;;;;;;;0.98;0.98;;;8.60;99.90;;;;;;4941294;29;20230;-80
2021/04/19 05:34:18;;;;;;;0.80;0.80;;;9.00;99.90;;;;;;4943454;29;20202;-80
2021/04/19 05:36:46;;;;;;;0.80;0.80;;;;;;;;;;4942026;29;20229;-81
2021/04/19 05:39:13;;;;;;;0.90;0.90;;;9.60;99.90;;;;;;4942748;29;20711;-81
2021/04/19 05:41:41;;;;;;;0.75;0.75;;;9.60;99.90;;;;;;4941690;29;20233;-81
2021/04/19 05:44:09;;;;;;;0.90;0.90;;;9.70;99.90;;;;;;4942245;29;20206;-80
2021/04/19 05:46:36;;;;;;;0.85;0.85;;;9.50;99.90;;;;;;4941399;29;20226;-82
2021/04/19 05:49:03;;;;;;;0.82;0.82;;;9.50;99.90;;;;;;4941948;29;20624;-82
2021/04/19 05:51:36;;;;;;;0.80;0.80;;;9.60;99.90;;;;;;4941252;29;20201;-82
2021/04/19 05:54:04;;;;;;;0.90;0.90;;;9.60;99.90;;;;;;4942121;29;20213;-81
2021/04/19 05:56:42;;;;;;;0.80;0.80;;;9.60;99.90;;;;;;4942002;29;20258;-80
2021/04/19 05:59:14;;;;;;;0.82;0.82;;;9.50;99.90;;;;;;4942030;29;20206;-80
2021/04/19 06:01:46;;;;;;;0.98;0.98;;;9.60;99.90;;;;;;4942087;29;20269;-81
2021/04/19 06:04:26;;;;;;;0.70;0.70;;;9.70;99.90;;;;;;4941689;29;20287;-80
2021/04/19 06:07:00;;;;;;;0.90;0.90;;;9.80;99.90;;;;;;4941108;29;20261;-81
2021/04/19 06:09:31;;;;;;;0.80;0.80;;;;;;;;;;4942128;29;20401;-80
2021/04/19 06:12:01;;;;;;;0.80;0.80;;;9.90;99.90;;;;;;4941858;29;20222;-81
2021/04/19 06:14:33;;;;;;;0.80;0.80;;;9.90;99.90;;;;;;4941925;29;20202;-81
2021/04/19 06:17:03;;;;;;;0.90;0.90;;;9.70;99.90;;;;;;4942449;29;20273;-81
2021/04/19 06:19:32;;;;;;;0.80;0.80;;;9.80;99.90;;;;;;4941971;29;20265;-80
2021/04/19 06:22:02;;;;;;;0.70;0.70;;;10.20;99.90;;;;;;4941878;29;20209;-81
2021/04/19 06:24:30;;;;;;;0.88;0.88;;;10.50;99.90;;;;;;4944934;29;20234;-82
2021/04/19 06:26:59;;;;;;;0.90;0.90;;;;;;;;;;4944719;29;20213;-82
2021/04/19 06:29:29;;;;;;;0.80;0.80;;;10.60;99.90;;;;;;4946142;29;20209;-83
2021/04/19 06:31:59;;;;;;;0.82;0.82;;;10.70;99.90;;;;;;4943778;29;20293;-81
2021/04/19 06:34:26;;;;;;;0.70;0.70;;;10.90;99.90;;;;;;4942808;29;20635;-81
2021/04/19 06:36:53;;;;;;;0.70;0.70;;;11.00;99.90;;;;;;4942061;29;20226;-80
2021/04/19 06:39:20;;;;;;;0.70;0.70;;;11.00;99.90;;;;;;4942593;29;20227;-82
2021/04/19 06:41:48;;;;;;;0.70;0.70;;;10.60;99.90;;;;;;4941886;29;20202;-81
2021/04/19 06:44:15;;;;;;;0.70;0.70;;;10.30;99.90;;;;;;4942629;29;20730;-82
2021/04/19 06:46:44;;;;;;;0.98;0.98;;;9.90;99.90;;;;;;4942749;29;20230;-81
2021/04/19 06:49:13;;;;;;;0.77;0.77;;;9.90;99.90;;;;;;4942454;29;20242;-82
2021/04/19 06:51:41;;;;;;;0.80;0.80;;;9.80;99.90;;;;;;4942697;29;20206;-82
2021/04/19 06:54:09;;;;;;;0.90;0.90;;;10.20;99.90;;;;;;4943661;29;20202;-80
2021/04/19 06:56:38;;;;;;;0.70;0.70;;;10.50;99.90;;;;;;4943147;29;20229;-81
2021/04/19 06:59:10;;;;;;;0.82;0.82;;;10.60;99.90;;;;;;4942743;29;20214;-81
2021/04/19 07:01:38;;;;;;;0.80;0.80;;;10.90;99.90;;;;;;4942282;29;20210;-81
2021/04/19 07:04:07;;;;;;;0.90;0.90;;;10.30;99.90;;;;;;4942007;29;20304;-82
2021/04/19 07:06:36;;;;;;;0.80;0.80;;;10.40;99.90;;;;;;4943203;29;20234;-82
2021/04/19 07:09:06;;;;;;;0.80;0.80;;;10.70;99.90;;;;;;4943314;29;20206;-81
2021/04/19 07:11:38;;;;;;;0.77;0.77;;;10.50;99.90;;;;;;4943641;29;20209;-80
2021/04/19 07:14:08;;;;;;;0.90;0.90;;;10.60;99.90;;;;;;4948118;29;20209;-80
2021/04/19 07:16:35;;;;;;;0.93;0.93;;;10.80;99.90;;;;;;4949295;29;20225;-82
2021/04/19 07:19:04;;;;;;;0.70;0.70;;;10.80;99.90;;;;;;4948904;29;20241;-81
2021/04/19 07:21:32;;;;;;;0.90;0.90;;;10.70;99.90;;;;;;4946889;29;20206;-81
2021/04/19 07:24:02;;;;;;;0.70;0.70;;;10.80;99.90;;;;;;4947463;29;20307;-80
2021/04/19 07:26:30;;;;;;;0.73;0.73;;;11.10;99.90;;;;;;4947557;29;20265;-81
2021/04/19 07:29:00;;;;;;;0.80;0.80;;;;;;;;;;4947041;29;20240;-81
2021/04/19 07:31:45;;;;;;;0.80;0.80;;;11.10;99.90;;;;;;4947615;29;20699;-79
2021/04/19 07:34:19;;;;;;;0.77;0.77;;;11.30;99.90;;;;;;4946322;29;20213;-80
2021/04/19 07:36:51;;;;;;;0.70;0.70;;;11.70;99.90;;;;;;4947662;29;20230;-80
2021/04/19 07:39:20;;;;;;;0.90;0.90;;;11.70;99.90;;;;;;4946671;29;20210;-81
2021/04/19 07:41:50;;;;;;;0.70;0.70;;;11.60;99.90;;;;;;4943643;29;20221;-80
2021/04/19 07:44:40;;;;;;;0.77;0.77;;;11.80;99.90;;;;;;4944257;29;20261;-81
2021/04/19 07:47:26;;;;;;;0.70;0.70;;;12.10;99.90;;;;;;4944034;29;20214;-80
2021/04/19 07:50:10;;;;;;;0.70;0.70;;;12.20;99.90;;;;;;4944264;29;20221;-81
2021/04/19 07:52:49;;;;;;;0.70;0.70;;;12.10;99.90;;;;;;4946803;29;20226;-81
2021/04/19 07:55:18;;;;;;;0.80;0.80;;;12.00;99.90;;;;;;4945872;29;20301;-82
2021/04/19 07:58:03;;;;;;;0.77;0.77;;;12.10;99.90;;;;;;4938972;29;20249;-79
2021/04/19 08:00:32;;;;;;;0.70;0.70;;;12.10;99.90;;;;;;4937635;29;20549;-79
2021/04/19 08:03:05;;;;;;;0.80;0.80;;;11.80;99.90;;;;;;4937860;29;20722;-80
2021/04/19 08:05:34;;;;;;;0.80;0.80;;;11.60;99.90;;;;;;4937734;29;20243;-80
2021/04/19 08:08:02;;;;;;;0.73;0.73;;;11.40;99.90;;;;;;4937180;29;20734;-81
2021/04/19 08:10:30;;;;;;;0.82;0.82;;;11.40;99.90;;;;;;4937480;29;20202;-79
2021/04/19 08:13:06;;;;;;;0.60;0.60;;;11.30;99.90;;;;;;4937566;29;20218;-79
2021/04/19 08:15:34;;;;;;;0.70;0.70;;;11.70;99.90;;;;;;4937953;29;20229;-79
2021/04/19 08:18:05;;;;;;;0.98;0.98;;;12.00;99.90;;;;;;4937752;29;20237;-79
2021/04/19 08:20:33;;;;;;;0.70;0.70;;;12.10;99.90;;;;;;4936979;29;20264;-80
2021/04/19 08:23:05;;;;;;;0.60;0.60;;;;;;;;;;4937829;29;20265;-80
2021/04/19 08:25:37;;;;;;;0.70;0.70;;;12.40;99.90;;;;;;4936922;29;20237;-79
2021/04/19 08:28:06;;;;;;;0.70;0.70;;;12.20;99.90;;;;;;4937099;29;20578;-79
2021/04/19 08:30:34;;;;;;;0.80;0.80;;;12.50;99.90;;;;;;4936952;29;20257;-79
2021/04/19 08:33:03;;;;;;;0.60;0.60;;;12.40;99.90;;;;;;4937522;29;20257;-79
2021/04/19 08:35:30;;;;;;;0.73;0.73;;;12.50;99.90;;;;;;4936840;29;20390;-79
2021/04/19 08:38:00;;;;;;;0.70;0.70;;;11.90;99.90;;;;;;4937234;29;20198;-78
2021/04/19 08:40:29;;;;;;;0.80;0.80;;;11.80;99.90;;;;;;4937649;29;20213;-78
2021/04/19 08:42:57;;;;;;;0.70;0.70;;;11.80;99.90;;;;;;4938253;29;20202;-79
2021/04/19 08:45:25;;;;;;;0.70;0.70;;;11.80;99.90;;;;;;4935559;29;20240;-81
2021/04/19 08:47:52;;;;;;;0.70;0.70;;;11.80;99.90;;;;;;4936508;29;20206;-80
2021/04/19 08:50:24;;;;;;;0.70;0.70;;;11.90;99.90;;;;;;4938772;29;20295;-80
2021/04/19 08:52:52;;;;;;;0.70;0.70;;;11.60;99.90;;;;;;4939489;29;20218;-80
2021/04/19 08:55:19;;;;;;;0.73;0.73;;;11.60;99.90;;;;;;4938633;29;20226;-79
2021/04/19 08:57:47;;;;;;;0.63;0.63;;;11.80;99.90;;;;;;4939536;29;20730;-81
2021/04/19 09:00:19;;;;;;;0.70;0.70;;;12.00;99.90;;;;;;4939403;29;20261;-79
2021/04/19 09:02:46;;;;;;;0.50;0.50;;;12.00;99.90;;;;;;4940790;29;20206;-81
2021/04/19 09:05:15;;;;;;;0.70;0.70;;;12.20;99.90;;;;;;4942219;29;20226;-82
2021/04/19 09:07:45;;;;;;;0.70;0.70;;;;;;;;;;4942135;29;20226;-81
2021/04/19 09:10:14;;;;;;;0.60;0.60;;;;;;;;;;4942302;29;20214;-80
2021/04/19 09:12:45;;;;;;;0.60;0.60;;;13.20;99.90;;;;;;4940297;29;20221;-79
2021/04/19 09:15:26;;;;;;;0.60;0.60;;;13.30;99.90;;;;;;4940320;29;20229;-80
2021/04/19 09:18:08;;;;;;;0.65;0.65;;;13.60;99.90;;;;;;4939265;29;20217;-81
2021/04/19 09:20:47;;;;;;;0.55;0.55;;;13.80;99.90;;;;;;4939028;29;20230;-80
2021/04/19 09:23:22;;;;;;;0.60;0.60;;;14.00;99.90;;;;;;4939420;29;20230;-80
2021/04/19 09:25:50;;;;;;;0.80;0.80;;;13.90;99.90;;;;;;4940184;29;20256;-80
2021/04/19 09:28:53;;;;;;;0.65;0.65;;;14.10;99.90;;;;;;4945333;29;20210;-80
2021/04/19 09:32:00;;;;;;;0.68;0.68;;;14.10;99.90;;;;;;4936761;29;20221;-80
2021/04/19 09:34:42;;;;;;;0.60;0.60;;;13.90;99.90;;;;;;4941236;29;20273;-79
2021/04/19 09:37:11;;;;;;;0.73;0.73;;;13.80;99.90;;;;;;4940655;29;20658;-78
2021/04/19 09:39:46;;;;;;;0.60;0.60;;;13.60;99.90;;;;;;4941440;29;20213;-78
2021/04/19 09:42:14;;;;;;;0.55;0.55;;;13.80;99.90;;;;;;4941348;29;20288;-78
2021/04/19 09:44:51;;;;;;;0.60;0.60;;;13.70;99.90;;;;;;4940553;29;20234;-79
2021/04/19 09:47:48;;;;;;;0.50;0.50;;;13.80;99.90;;;;;;4940982;29;20220;-78
2021/04/19 09:50:16;;;;;;;0.50;0.50;;;13.90;99.90;;;;;;4941305;29;20210;-78
2021/04/19 09:52:48;;;;;;;0.50;0.50;;;14.20;99.90;;;;;;4940857;29;20226;-78
2021/04/19 09:55:16;;;;;;;0.60;0.60;;;14.00;99.90;;;;;;4940958;29;20230;-79
2021/04/19 09:57:43;;;;;;;0.60;0.60;;;14.00;99.90;;;;;;4941116;29;20202;-78
2021/04/19 10:00:11;;;;;;;0.70;0.70;;;13.80;99.90;;;;;;4941218;29;20214;-80
2021/04/19 10:02:41;;;;;;;0.60;0.60;;;13.60;99.90;;;;;;4940948;29;20217;-80
2021/04/19 10:05:11;;;;;;;0.70;0.70;;;13.50;99.90;;;;;;4940953;29;20230;-80
2021/04/19 10:07:44;;;;;;;0.60;0.60;;;13.60;99.90;;;;;;4940411;29;20524;-80
2021/04/19 10:10:16;;;;;;;0.70;0.70;;;13.50;99.90;;;;;;4940911;29;20210;-80
2021/04/19 10:12:46;;;;;;;0.60;0.60;;;13.50;99.90;;;;;;4940523;29;20222;-80
2021/04/19 10:15:18;;;;;;;0.70;0.70;;;13.80;99.90;;;;;;4940487;29;20237;-77
2021/04/19 10:17:47;;;;;;;0.60;0.60;;;13.90;99.90;;;;;;4940295;29;20206;-79
2021/04/19 10:20:18;;;;;;;0.63;0.63;;;14.00;99.90;;;;;;4940550;29;20670;-80
2021/04/19 10:22:46;;;;;;;0.70;0.70;;;14.10;99.90;;;;;;4940871;29;20235;-79
2021/04/19 10:25:13;;;;;;;0.70;0.70;;;14.10;99.90;;;;;;4940768;29;20749;-80
2021/04/19 10:27:40;;;;;;;0.50;0.50;;;14.00;99.90;;;;;;4941016;29;20261;-80
2021/04/19 10:30:10;;;;;;;0.52;0.52;;;14.20;99.90;;;;;;4941209;29;20253;-79
2021/04/19 10:32:37;;;;;;;0.60;0.60;;;14.40;99.90;;;;;;4940574;29;20222;-79
2021/04/19 10:35:20;;;;;;;0.60;0.60;;;14.30;99.90;;;;;;4940879;29;20261;-79
2021/04/19 10:37:55;;;;;;;0.60;0.60;;;13.90;99.80;;;;;;4940467;29;20677;-79
2021/04/19 10:40:22;;;;;;;0.60;0.60;;;14.30;98.60;;;;;;4941385;29;20206;-81
2021/04/19 10:42:49;;;;;;;0.60;0.60;;;14.40;98.50;;;;;;4941030;29;20250;-80
2021/04/19 10:45:18;;;;;;;0.60;0.60;;;14.60;97.50;;;;;;4941616;29;20222;-81
2021/04/19 10:47:46;;;;;;;0.50;0.50;;;;;;;;;;4940931;29;20210;-81
2021/04/19 10:50:13;;;;;;;0.60;0.60;;;14.60;99.90;;;;;;4942472;29;20218;-81
2021/04/19 10:52:53;;;;;;;0.50;0.50;;;;;;;;;;4943176;29;20218;-81
2021/04/19 10:55:21;;;;;;;0.60;0.60;;;15.40;99.90;;;;;;4943394;29;20736;-80
2021/04/19 10:57:48;;;;;;;0.50;0.50;;;15.30;99.90;;;;;;4943065;29;20257;-81
2021/04/19 11:00:16;;;;;;;0.50;0.50;;;15.20;99.90;;;;;;4943633;29;20209;-81
2021/04/19 11:02:44;;;;;;;0.40;0.40;;;15.10;99.90;;;;;;4943390;29;20226;-81
2021/04/19 11:05:13;;;;;;;0.40;0.40;;;15.20;99.90;;;;;;4943957;29;20572;-81
2021/04/19 11:07:44;;;;;;;0.50;0.50;;;15.30;99.90;;;;;;4943987;29;20210;-82
2021/04/19 11:10:24;;;;;;;0.50;0.50;;;;;;;;;;4943902;29;20228;-81
2021/04/19 11:13:00;;;;;;;0.50;0.50;;;15.70;99.50;;;;;;4942109;29;20245;-81
2021/04/19 11:15:30;;;;;;;0.50;0.50;;;15.70;99.90;;;;;;4941713;29;20346;-82
2021/04/19 11:17:57;;;;;;;0.60;0.60;;;15.80;99.90;;;;;;4941689;29;20650;-79
2021/04/19 11:20:26;;;;;;;0.50;0.50;;;15.90;94.30;;;;;;4941676;29;20201;-79
2021/04/19 11:22:53;;;;;;;0.50;0.50;;;15.70;93.50;;;;;;4942059;29;20202;-80
2021/04/19 11:25:24;;;;;;;0.50;0.50;;;15.20;94.10;;;;;;4941353;29;20240;-81
2021/04/19 11:27:53;;;;;;;0.50;0.50;;;15.40;93.90;;;;;;4942063;29;20206;-81
2021/04/19 11:30:24;;;;;;;0.40;0.40;;;15.20;94.40;;;;;;4942058;29;20221;-81
2021/04/19 11:33:02;;;;;;;0.50;0.50;;;15.20;94.50;;;;;;4942184;29;20254;-78
2021/04/19 11:35:36;;;;;;;0.50;0.50;;;15.20;93.90;;;;;;4945557;29;20225;-81
2021/04/19 11:38:05;;;;;;;0.65;0.65;;;14.80;94.70;;;;;;4940603;29;20292;-81
2021/04/19 11:40:36;;;;;;;0.70;0.70;;;14.60;95.60;;;;;;4940793;29;20202;-81
2021/04/19 11:43:17;;;;;;;0.60;0.60;;;14.90;99.90;;;;;;4941774;29;20208;-80
2021/04/19 11:45:44;;;;;;;0.60;0.60;;;14.80;94.90;;;;;;4941908;29;20367;-81
2021/04/19 11:48:15;;;;;;;0.50;0.50;;;14.80;95.00;;;;;;4941315;29;20305;-80
2021/04/19 11:50:42;;;;;;;0.60;0.60;;;14.90;94.60;;;;;;4941037;29;20209;-81
2021/04/19 11:53:09;;;;;;;0.50;0.50;;;15.00;96.70;;;;;;4941701;29;20359;-81
2021/04/19 11:55:37;;;;;;;0.50;0.50;;;15.30;95.20;;;;;;4942411;29;20226;-80
2021/04/19 11:58:04;;;;;;;0.50;0.50;;;15.50;95.00;;;;;;4942507;29;20446;-79
2021/04/19 12:00:31;;;;;;;0.55;0.55;;;15.50;95.20;;;;;;4941056;29;20561;-81
2021/04/19 12:02:58;;;;;;;0.50;0.50;;;15.40;94.20;;;;;;4941396;29;20198;-80
2021/04/19 12:05:25;;;;;;;0.60;0.60;;;15.30;94.20;;;;;;4942905;29;20237;-80
2021/04/19 12:07:52;;;;;;;0.50;0.50;;;15.10;95.80;;;;;;4943834;29;20686;-80
2021/04/19 12:10:19;;;;;;;0.60;0.60;;;15.30;95.20;;;;;;4943281;29;20273;-80
2021/04/19 12:12:46;;;;;;;0.60;0.60;;;16.10;95.50;;;;;;4944478;29;20205;-81
2021/04/19 12:15:15;;;;;;;0.50;0.50;;;15.60;94.30;;;;;;4944037;29;20230;-80
2021/04/19 12:17:42;;;;;;;0.50;0.50;;;15.80;93.60;;;;;;4941746;29;20202;-80
2021/04/19 12:20:09;;;;;;;0.50;0.50;;;15.90;92.60;;;;;;4942505;29;20202;-80
2021/04/19 12:22:36;;;;;;;0.40;0.40;;;16.60;99.90;;;;;;4944549;29;20210;-79
2021/04/19 12:25:03;;;;;;;0.40;0.40;;;16.50;91.60;;;;;;4944621;29;20242;-81
2021/04/19 12:27:30;;;;;;;0.40;0.40;;;17.10;99.90;;;;;;4942239;29;20270;-80
2021/04/19 12:29:59;;;;;;;0.50;0.50;;;;;;;;;;4944754;29;20237;-81
2021/04/19 12:32:25;;;;;;;0.50;0.50;;;17.10;93.70;;;;;;4945974;29;20202;-80
2021/04/19 12:34:52;;;;;;;0.38;0.38;;;17.10;90.00;;;;;;4948975;29;20281;-79
2021/04/19 12:37:19;;;;;;;0.40;0.40;;;17.30;93.90;;;;;;4949910;29;20627;-80
2021/04/19 12:39:46;;;;;;;0.50;0.50;;;17.10;90.80;;;;;;4946473;29;20574;-80
2021/04/19 12:42:13;;;;;;;0.50;0.50;;;16.80;90.00;;;;;;4944638;29;20210;-79
2021/04/19 12:44:40;;;;;;;0.50;0.50;;;17.70;90.30;;;;;;4945724;29;20229;-80
2021/04/19 12:47:08;;;;;;;0.47;0.47;;;17.20;91.20;;;;;;4942989;29;20213;-79
2021/04/19 12:49:35;;;;;;;0.50;0.50;;;17.30;89.70;;;;;;4941802;29;20241;-81
2021/04/19 12:52:02;;;;;;;0.40;0.40;;;17.60;93.40;;;;;;4941691;29;20261;-80
2021/04/19 12:54:29;;;;;;;0.50;0.50;;;17.70;83.80;;;;;;4940489;29;20226;-79
2021/04/19 12:56:56;;;;;;;0.50;0.50;;;;;;;;;;4941811;29;20233;-80
2021/04/19 12:59:23;;;;;;;0.50;0.50;;;17.00;90.40;;;;;;4940074;29;20265;-80
2021/04/19 13:01:49;;;;;;;0.50;0.50;;;16.50;89.50;;;;;;4943628;29;20202;-78
2021/04/19 13:04:17;;;;;;;0.50;0.50;;;16.70;90.50;;;;;;4942360;29;20194;-80
2021/04/19 13:06:46;;;;;;;0.50;0.50;;;16.20;91.00;;;;;;4945023;29;20226;-79
2021/04/19 13:09:13;;;;;;;0.50;0.50;;;16.40;96.20;;;;;;4945511;29;20270;-80
2021/04/19 13:11:40;;;;;;;0.50;0.50;;;16.60;92.80;;;;;;4944704;29;20291;-80
2021/04/19 13:14:07;;;;;;;0.40;0.40;;;16.70;92.00;;;;;;4944452;29;20221;-80
2021/04/19 13:16:34;;;;;;;0.40;0.40;;;16.90;91.90;;;;;;4944294;29;20214;-79
2021/04/19 13:19:02;;;;;;;0.40;0.40;;;17.30;87.90;;;;;;4943297;29;20725;-78
2021/04/19 13:21:30;;;;;;;0.50;0.50;;;17.00;87.50;;;;;;4943891;29;20256;-79
2021/04/19 13:23:58;;;;;;;0.40;0.40;;;16.60;89.10;;;;;;4944006;29;20194;-80
2021/04/19 13:26:25;;;;;;;0.50;0.50;;;16.60;90.00;;;;;;4944301;29;20226;-79
2021/04/19 13:28:52;;;;;;;0.50;0.50;;;16.60;98.30;;;;;;4945307;29;20194;-79
2021/04/19 13:31:19;;;;;;;0.50;0.50;;;16.20;93.40;;;;;;4944853;29;20202;-79
2021/04/19 13:33:46;;;;;;;0.50;0.50;;;16.30;93.60;;;;;;4944964;29;20315;-80
2021/04/19 13:36:14;;;;;;;0.40;0.40;;;;;;;;;;4945923;29;20249;-80
2021/04/19 13:38:42;;;;;;;0.40;0.40;;;16.60;87.00;;;;;;4945831;29;20202;-80
2021/04/19 13:41:11;;;;;;;0.50;0.50;;;16.70;90.80;;;;;;4947229;29;20198;-80
2021/04/19 13:43:38;;;;;;;0.50;0.50;;;17.30;99.10;;;;;;4945975;29;20553;-80
2021/04/19 13:46:05;;;;;;;0.50;0.50;;;17.40;93.80;;;;;;4945283;29;20222;-80
2021/04/19 13:48:32;;;;;;;0.40;0.40;;;17.30;92.30;;;;;;4943727;29;20202;-80
2021/04/19 13:50:59;;;;;;;0.40;0.40;;;17.00;84.50;;;;;;4941748;29;20573;-77
2021/04/19 13:53:26;;;;;;;0.40;0.40;;;16.80;83.50;;;;;;4943234;29;20288;-79
2021/04/19 13:55:53;;;;;;;0.50;0.50;;;16.80;93.80;;;;;;4943454;29;20642;-79
2021/04/19 13:58:20;;;;;;;0.40;0.40;;;17.30;99.90;;;;;;4943637;29;20233;-79
2021/04/19 14:00:47;;;;;;;0.40;0.40;;;17.50;82.70;;;;;;4938186;29;20233;-71
2021/04/19 14:03:14;;;;;;;0.40;0.40;;;17.80;82.40;;;;;;4935920;29;20206;-74
2021/04/19 14:05:41;;;;;;;0.50;0.50;;;17.80;79.80;;;;;;4936133;29;20230;-72
2021/04/19 14:08:08;;;;;;;0.40;0.40;;;17.80;79.40;;;;;;4935714;29;20198;-74
2021/04/19 14:10:35;;;;;;;0.40;0.40;;;17.60;79.20;;;;;;4935451;29;20754;-74
2021/04/19 14:13:03;;;;;;;0.50;0.50;;;17.70;79.80;;;;;;4935459;29;20198;-73
2021/04/19 14:15:31;;;;;;;0.50;0.50;;;17.50;80.50;;;;;;4935360;29;20222;-73
2021/04/19 14:17:58;;;;;;;0.40;0.40;;;17.50;79.50;;;;;;4935548;29;20214;-74
2021/04/19 14:20:26;;;;;;;0.50;0.50;;;17.50;79.00;;;;;;4935384;29;20212;-74
2021/04/19 14:22:53;;;;;;;0.40;0.40;;;17.40;78.10;;;;;;4935364;29;20202;-73
2021/04/19 14:25:20;;;;;;;0.40;0.40;;;17.40;78.70;;;;;;4935246;29;20238;-73
2021/04/19 14:27:47;;;;;;;0.50;0.50;;;17.80;77.50;;;;;;4935846;29;20198;-72
2021/04/19 14:30:17;;;;;;;0.50;0.50;;;17.90;77.50;;;;;;4935609;29;20675;-72
2021/04/19 14:32:44;;;;;;;0.50;0.50;;;18.10;76.00;;;;;;4935408;29;20570;-73
2021/04/19 14:35:11;;;;;;;0.40;0.40;;;17.80;77.10;;;;;;4932439;29;20222;-73
2021/04/19 14:37:38;;;;;;;0.40;0.40;;;17.70;76.50;;;;;;4935397;29;20715;-73
2021/04/19 14:40:07;;;;;;;0.30;0.30;;;17.90;76.70;;;;;;4935799;29;20209;-70
2021/04/19 14:42:34;;;;;;;0.40;0.40;;;18.00;77.70;;;;;;4935486;29;20472;-74
2021/04/19 14:45:02;;;;;;;0.40;0.40;;;18.00;75.50;;;;;;4935371;29;20220;-73
2021/04/19 14:47:30;;;;;;;0.40;0.40;;;18.10;75.70;;;;;;4935677;29;20580;-75
2021/04/19 14:49:57;;;;;;;0.40;0.40;;;17.70;76.40;;;;;;4936217;29;20229;-78
2021/04/19 14:52:24;;;;;;;0.40;0.40;;;17.70;77.50;;;;;;4935180;29;20684;-73
2021/04/19 14:54:52;;;;;;;0.40;0.40;;;17.50;99.20;;;;;;4937277;29;20225;-73
2021/04/19 14:57:19;;;;;;;0.40;0.40;;;17.60;78.20;;;;;;4935607;29;20658;-79
2021/04/19 14:59:46;;;;;;;0.40;0.40;;;17.50;78.30;;;;;;4935437;29;20621;-74
2021/04/19 15:02:14;;;;;;;0.40;0.40;;;17.50;79.80;;;;;;4935008;29;20198;-76
2021/04/19 15:04:42;;;;;;;0.40;0.40;;;17.60;80.60;;;;;;4939271;29;20191;-77
2021/04/19 15:07:09;;;;;;;0.40;0.40;;;17.40;83.10;;;;;;4937908;29;20194;-77
2021/04/19 15:09:36;;;;;;;0.40;0.40;;;17.30;82.60;;;;;;4935725;29;20660;-78
2021/04/19 15:12:04;;;;;;;0.40;0.40;;;17.40;82.40;;;;;;4936951;29;20210;-77
2021/04/19 15:14:30;;;;;;;0.40;0.40;;;17.40;81.00;;;;;;4935745;29;20226;-78
2021/04/19 15:16:57;;;;;;;0.40;0.40;;;16.90;81.30;;;;;;4935184;29;20233;-77
2021/04/19 15:19:25;;;;;;;0.50;0.50;;;16.70;83.30;;;;;;4935112;29;20240;-77
2021/04/19 15:21:52;;;;;;;0.40;0.40;;;16.40;85.10;;;;;;4935335;29;20269;-76
2021/04/19 15:24:19;;;;;;;0.50;0.50;;;16.20;85.80;;;;;;4934524;29;20249;-77
2021/04/19 15:26:46;;;;;;;0.50;0.50;;;15.90;87.80;;;;;;4934230;29;20230;-77
2021/04/19 15:29:13;;;;;;;0.50;0.50;;;15.70;89.90;;;;;;4934747;29;20206;-77
2021/04/19 15:31:41;;;;;;;0.50;0.50;;;15.40;90.80;;;;;;4934581;29;20682;-74
2021/04/19 15:34:10;;;;;;;0.50;0.50;;;15.40;90.20;;;;;;4934596;29;20230;-74
2021/04/19 15:36:42;;;;;;;0.50;0.50;;;15.50;90.50;;;;;;4934644;29;20249;-74
2021/04/19 15:39:10;;;;;;;0.40;0.40;;;15.50;90.70;;;;;;4934208;29;20766;-75
2021/04/19 15:41:37;;;;;;;0.40;0.40;;;15.40;90.80;;;;;;4929340;29;20210;-75
2021/04/19 15:44:04;;;;;;;0.52;0.52;;;15.30;91.10;;;;;;4933755;29;20198;-75
2021/04/19 15:46:31;;;;;;;0.50;0.50;;;15.10;91.40;;;;;;4934561;29;20230;-75
2021/04/19 15:48:58;;;;;;;0.50;0.50;;;15.00;92.10;;;;;;4934556;29;20209;-75
2021/04/19 15:51:26;;;;;;;0.40;0.40;;;15.00;92.20;;;;;;4934034;29;20209;-75
2021/04/19 15:53:53;;;;;;;0.68;0.68;;;14.90;92.30;;;;;;4933679;29;20220;-75
2021/04/19 15:56:21;;;;;;;0.50;0.50;;;15.00;92.60;;;;;;4933637;29;20222;-76
2021/04/19 15:58:49;;;;;;;0.50;0.50;;;15.20;92.60;;;;;;4935461;29;20202;-76
2021/04/19 16:01:16;;;;;;;0.50;0.50;;;15.40;91.50;;;;;;4934248;29;20220;-76
2021/04/19 16:03:43;;;;;;;0.50;0.50;;;15.50;91.50;;;;;;4935493;29;20221;-77
2021/04/19 16:06:11;;;;;;;0.40;0.40;;;15.60;91.00;;;;;;4935138;29;20650;-77
2021/04/19 16:08:37;;;;;;;0.60;0.60;;;16.00;90.80;;;;;;4935984;29;20707;-76
2021/04/19 16:11:04;;;;;;;0.40;0.40;;;16.10;89.50;;;;;;4937315;29;20289;-78
2021/04/19 16:13:32;;;;;;;0.50;0.50;;;16.10;89.60;;;;;;4940573;29;20206;-74
2021/04/19 16:15:59;;;;;;;0.50;0.50;;;16.40;88.90;;;;;;4942679;29;20225;-77
2021/04/19 16:18:26;;;;;;;0.40;0.40;;;16.80;87.70;;;;;;4936313;29;20261;-77
2021/04/19 16:20:53;;;;;;;0.40;0.40;;;16.80;86.80;;;;;;4938363;29;20293;-77
2021/04/19 16:23:20;;;;;;;0.40;0.40;;;17.10;85.60;;;;;;4936411;29;20655;-77
2021/04/19 16:25:47;;;;;;;0.40;0.40;;;17.10;86.90;;;;;;4933320;29;20233;-76
2021/04/19 16:28:14;;;;;;;0.40;0.40;;;17.00;88.30;;;;;;4934075;29;20293;-75
2021/04/19 16:30:42;;;;;;;0.30;0.30;;;17.50;87.40;;;;;;4933734;29;20206;-76
2021/04/19 16:33:09;;;;;;;0.30;0.30;;;17.70;85.90;;;;;;4934028;29;20205;-75
2021/04/19 16:35:36;;;;;;;0.40;0.40;;;17.80;86.00;;;;;;4936735;29;20238;-77
2021/04/19 16:38:03;;;;;;;0.40;0.40;;;18.00;85.40;;;;;;4931379;29;20581;-73
2021/04/19 16:40:31;;;;;;;0.40;0.40;;;17.60;85.90;;;;;;4937334;29;20209;-74
2021/04/19 16:42:57;;;;;;;0.32;0.32;;;17.30;87.30;;;;;;4930938;29;20206;-75
2021/04/19 16:45:24;;;;;;;0.30;0.30;;;17.70;86.70;;;;;;4930633;29;20229;-75
2021/04/19 16:47:52;;;;;;;0.35;0.35;;;17.60;87.30;;;;;;4938202;29;20197;-74
2021/04/19 16:50:20;;;;;;;0.40;0.40;;;17.30;88.60;;;;;;4934822;29;20228;-75
2021/04/19 16:52:49;;;;;;;0.40;0.40;;;16.90;90.00;;;;;;4936996;29;20213;-74
2021/04/19 16:55:16;;;;;;;0.40;0.40;;;17.10;89.80;;;;;;4935201;29;20766;-74
2021/04/19 16:57:43;;;;;;;0.50;0.50;;;17.10;90.30;;;;;;4937337;29;20679;-73
2021/04/19 17:00:13;;;;;;;0.40;0.40;;;17.10;90.00;;;;;;4936131;29;20249;-74
2021/04/19 17:02:40;;;;;;;0.40;0.40;;;16.90;89.90;;;;;;4935583;29;20261;-73
2021/04/19 17:05:10;;;;;;;0.50;0.50;;;16.80;90.00;;;;;;4935742;29;20225;-72
2021/04/19 17:07:37;;;;;;;0.50;0.50;;;16.30;90.20;;;;;;4936170;29;20202;-73
2021/04/19 17:10:05;;;;;;;0.47;0.47;;;16.50;90.40;;;;;;4936038;29;20204;-73
2021/04/19 17:12:33;;;;;;;0.40;0.40;;;16.40;90.60;;;;;;4935968;29;20284;-74
2021/04/19 17:15:00;;;;;;;0.50;0.50;;;16.40;90.70;;;;;;4936231;29;20277;-74